createdAt,value
2023-04-18T00:00:21.611Z,71.15
2023-04-18T00:02:48.351Z,70.51
2023-04-18T00:05:18.212Z,71.13
2023-04-18T00:07:44.981Z,71.32
2023-04-18T00:10:12.061Z,71.04
2023-04-18T00:12:39.233Z,70.67
2023-04-18T00:15:09.022Z,70.88
2023-04-18T00:17:38.554Z,70.56
2023-04-18T00:20:07.247Z,70.86
2023-04-18T00:22:34.000Z,70.90
2023-04-18T00:25:00.580Z,71.28
2023-04-18T00:27:29.725Z,70.79
2023-04-18T00:29:59.012Z,71.39
2023-04-18T00:32:28.480Z,71.28
2023-04-18T00:34:55.098Z,70.94
2023-04-18T00:37:21.726Z,71.10
2023-04-18T00:39:53.852Z,70.89
2023-04-18T00:42:22.009Z,70.55
2023-04-18T00:44:51.170Z,71.13
2023-04-18T00:47:17.884Z,70.37
2023-04-18T00:49:48.633Z,71.06
2023-04-18T00:52:16.798Z,71.11
2023-04-18T00:54:44.752Z,70.82
2023-04-18T00:57:12.444Z,71.30
2023-04-18T00:59:39.152Z,71.16
2023-04-18T01:02:05.979Z,71.33
2023-04-18T01:04:35.883Z,70.64
2023-04-18T01:07:03.455Z,71.11
2023-04-18T01:09:30.332Z,71.58
2023-04-18T01:11:57.043Z,71.14
2023-04-18T01:14:25.891Z,70.75
2023-04-18T01:16:55.475Z,71.41
2023-04-18T01:19:23.244Z,70.89
2023-04-18T01:21:50.093Z,71.13
2023-04-18T01:24:17.791Z,71.49
2023-04-18T01:26:47.705Z,70.73
2023-04-18T01:29:14.917Z,70.63
2023-04-18T01:31:42.151Z,71.07
2023-04-18T01:34:09.176Z,70.71
2023-04-18T01:36:36.844Z,71.29
2023-04-18T01:39:03.867Z,71.49
2023-04-18T01:41:33.179Z,70.68
2023-04-18T01:44:02.642Z,71.01
2023-04-18T01:46:29.682Z,70.90
2023-04-18T01:48:59.818Z,70.81
2023-04-18T01:51:28.023Z,70.76
2023-04-18T01:53:54.608Z,70.27
2023-04-18T01:56:23.390Z,70.91
2023-04-18T01:58:52.293Z,70.94
2023-04-18T02:01:18.920Z,70.84
2023-04-18T02:03:50.751Z,71.65
2023-04-18T02:06:17.532Z,71.46
2023-04-18T02:08:44.141Z,71.10
2023-04-18T02:11:15.303Z,70.92
2023-04-18T02:13:41.909Z,70.37
2023-04-18T02:16:12.958Z,70.36
2023-04-18T02:18:40.247Z,70.33
2023-04-18T02:21:07.252Z,71.22
2023-04-18T02:23:33.857Z,70.69
2023-04-18T02:26:00.493Z,71.17
2023-04-18T02:28:27.086Z,70.60
2023-04-18T02:30:53.668Z,70.67
2023-04-18T02:33:22.677Z,70.79
2023-04-18T02:35:51.529Z,71.33
2023-04-18T02:38:18.254Z,71.05
2023-04-18T02:40:44.863Z,70.81
2023-04-18T02:43:13.759Z,70.64
2023-04-18T02:45:40.630Z,71.34
2023-04-18T02:48:07.369Z,70.70
2023-04-18T02:50:35.527Z,70.65
2023-04-18T02:53:02.212Z,70.93
2023-04-18T02:55:32.153Z,70.81
2023-04-18T02:57:58.707Z,70.93
2023-04-18T03:00:25.356Z,70.47
2023-04-18T03:02:53.300Z,70.76
2023-04-18T03:05:20.351Z,71.29
2023-04-18T03:07:47.012Z,70.40
2023-04-18T03:10:16.661Z,70.84
2023-04-18T03:12:43.380Z,70.21
2023-04-18T03:15:10.450Z,70.36
2023-04-18T03:17:37.106Z,70.66
2023-04-18T03:20:06.709Z,70.85
2023-04-18T03:22:33.310Z,70.25
2023-04-18T03:25:00.831Z,70.85
2023-04-18T03:27:27.493Z,70.77
2023-04-18T03:29:54.099Z,71.13
2023-04-18T03:32:21.112Z,71.17
2023-04-18T03:34:48.062Z,70.26
2023-04-18T03:37:17.001Z,71.01
2023-04-18T03:39:45.926Z,71.38
2023-04-18T03:42:12.489Z,71.55
2023-04-18T03:44:41.422Z,71.04
2023-04-18T03:47:10.353Z,71.76
2023-04-18T03:49:37.101Z,71.30
2023-04-18T03:52:05.921Z,72.00
2023-04-18T03:54:32.665Z,71.50
2023-04-18T03:56:59.690Z,71.36
2023-04-18T03:59:26.646Z,71.40
2023-04-18T04:01:53.476Z,71.92
2023-04-18T04:04:22.416Z,71.27
2023-04-18T04:06:51.361Z,71.69
2023-04-18T04:09:17.982Z,71.25
2023-04-18T04:11:46.202Z,71.92
2023-04-18T04:14:13.281Z,71.17
2023-04-18T04:16:40.691Z,71.49
2023-04-18T04:19:07.280Z,70.90
2023-04-18T04:21:33.887Z,71.42
2023-04-18T04:24:01.684Z,71.89
2023-04-18T04:26:30.876Z,71.90
2023-04-18T04:28:57.792Z,71.75
2023-04-18T04:31:26.785Z,71.72
2023-04-18T04:33:53.448Z,70.53
2023-04-18T04:36:21.392Z,71.35
2023-04-18T04:38:50.414Z,71.41
2023-04-18T04:41:17.281Z,70.99
2023-04-18T04:43:44.025Z,71.26
2023-04-18T04:46:13.669Z,70.89
2023-04-18T04:48:40.710Z,71.08
2023-04-18T04:51:09.676Z,71.11
2023-04-18T04:53:36.316Z,71.31
2023-04-18T04:56:06.098Z,71.47
2023-04-18T04:58:34.064Z,71.12
2023-04-18T05:01:03.128Z,71.59
2023-04-18T05:03:34.878Z,71.48
2023-04-18T05:06:06.411Z,71.43
2023-04-18T05:08:33.176Z,71.18
2023-04-18T05:11:02.150Z,71.38
2023-04-18T05:13:31.009Z,71.91
2023-04-18T05:15:59.338Z,71.81
2023-04-18T05:18:25.952Z,71.90
2023-04-18T05:20:52.686Z,71.27
2023-04-18T05:23:21.555Z,71.50
2023-04-18T05:25:50.734Z,71.38
2023-04-18T05:28:17.344Z,71.43
2023-04-18T05:30:45.448Z,72.08
2023-04-18T05:33:12.082Z,71.71
2023-04-18T05:35:38.869Z,71.87
2023-04-18T05:38:08.487Z,72.02
2023-04-18T05:40:38.260Z,71.52
2023-04-18T05:43:04.833Z,71.04
2023-04-18T05:45:31.452Z,70.96
2023-04-18T05:47:58.091Z,71.37
2023-04-18T05:50:24.917Z,71.01
2023-04-18T05:52:52.090Z,71.43
2023-04-18T05:55:18.683Z,70.86
2023-04-18T05:57:47.525Z,71.06
2023-04-18T06:00:14.651Z,70.66
2023-04-18T06:02:41.665Z,70.59
2023-04-18T06:05:09.420Z,70.92
2023-04-18T06:07:39.062Z,70.48
2023-04-18T06:10:11.235Z,70.16
2023-04-18T06:12:37.861Z,70.68
2023-04-18T06:15:07.540Z,70.37
2023-04-18T06:17:35.020Z,70.29
2023-04-18T06:20:02.168Z,69.94
2023-04-18T06:22:28.801Z,69.90
2023-04-18T06:24:57.947Z,69.98
2023-04-18T06:27:31.585Z,69.71
2023-04-18T06:29:59.034Z,70.18
2023-04-18T06:32:30.563Z,69.03
2023-04-18T06:34:57.221Z,69.19
2023-04-18T06:37:28.405Z,68.67
2023-04-18T06:39:55.185Z,68.70
2023-04-18T06:42:22.569Z,68.30
2023-04-18T06:44:49.633Z,68.87
2023-04-18T06:47:16.549Z,68.46
2023-04-18T06:49:43.190Z,68.01
2023-04-18T06:52:09.902Z,67.82
2023-04-18T06:54:38.897Z,67.42
2023-04-18T06:57:06.271Z,67.69
2023-04-18T06:59:35.840Z,67.58
2023-04-18T07:02:02.435Z,67.49
2023-04-18T07:04:31.698Z,65.81
2023-04-18T07:07:01.576Z,66.09
2023-04-18T07:09:28.307Z,63.96
2023-04-18T07:11:54.987Z,59.98
2023-04-18T07:14:23.591Z,58.24
2023-04-18T07:16:51.280Z,59.24
2023-04-18T07:19:22.780Z,57.62
2023-04-18T07:21:51.252Z,56.70
2023-04-18T07:24:17.878Z,54.44
2023-04-18T07:26:44.636Z,54.63
2023-04-18T07:29:11.269Z,53.80
2023-04-18T07:31:40.324Z,50.96
2023-04-18T07:34:06.984Z,50.65
2023-04-18T07:36:33.585Z,50.13
2023-04-18T07:39:02.228Z,48.25
2023-04-18T07:41:28.889Z,46.64
2023-04-18T07:43:55.577Z,45.83
2023-04-18T07:46:22.234Z,43.72
2023-04-18T07:48:49.032Z,44.46
2023-04-18T07:51:15.728Z,44.53
2023-04-18T07:53:47.016Z,41.71
2023-04-18T07:56:14.570Z,43.54
2023-04-18T07:58:41.422Z,41.88
2023-04-18T08:01:13.530Z,42.43
2023-04-18T08:03:42.847Z,42.08
2023-04-18T08:06:10.015Z,42.13
2023-04-18T08:08:41.237Z,42.08
2023-04-18T08:11:10.946Z,40.74
2023-04-18T08:13:37.589Z,42.41
2023-04-18T08:16:04.470Z,43.45
2023-04-18T08:18:31.131Z,42.55
2023-04-18T08:21:00.209Z,42.28
2023-04-18T08:23:26.915Z,41.52
2023-04-18T08:25:53.642Z,41.03
2023-04-18T08:28:22.637Z,41.16
2023-04-18T08:30:52.182Z,40.41
2023-04-18T08:33:21.612Z,40.39
2023-04-18T08:35:48.409Z,39.84
2023-04-18T08:38:17.417Z,39.76
2023-04-18T08:40:47.537Z,40.31
2023-04-18T08:43:15.708Z,40.22
2023-04-18T08:45:45.897Z,39.37
2023-04-18T08:48:16.818Z,39.49
2023-04-18T08:50:47.891Z,39.38
2023-04-18T08:53:19.089Z,39.75
2023-04-18T08:55:47.777Z,38.05
2023-04-18T08:58:23.227Z,37.94
2023-04-18T09:00:51.758Z,37.93
2023-04-18T09:03:37.843Z,36.87
2023-04-18T09:06:08.821Z,36.70
2023-04-18T09:08:38.336Z,36.46
2023-04-18T09:11:29.281Z,35.42
2023-04-18T09:13:58.882Z,36.49
2023-04-18T09:16:31.411Z,36.72
2023-04-18T09:19:18.163Z,35.62
2023-04-18T09:21:48.934Z,36.05
2023-04-18T09:24:21.246Z,36.15
2023-04-18T09:26:49.888Z,34.79
2023-04-18T09:29:18.499Z,34.62
2023-04-18T09:31:57.715Z,32.24
2023-04-18T09:34:25.209Z,33.82
2023-04-18T09:37:08.349Z,32.72
2023-04-18T09:39:39.232Z,33.66
2023-04-18T09:42:10.573Z,34.27
2023-04-18T09:44:38.504Z,33.49
2023-04-18T09:47:08.119Z,34.10
2023-04-18T09:49:37.050Z,34.22
2023-04-18T09:52:09.674Z,34.43
2023-04-18T09:54:39.368Z,34.78
2023-04-18T09:57:12.140Z,33.39
2023-04-18T09:59:51.409Z,33.27
2023-04-18T10:02:23.122Z,33.43
2023-04-18T10:04:51.923Z,33.24
2023-04-18T10:07:21.439Z,34.27
2023-04-18T10:09:49.390Z,34.38
2023-04-18T10:12:17.590Z,34.32
2023-04-18T10:14:44.644Z,35.28
2023-04-18T10:17:11.957Z,34.55
2023-04-18T10:19:42.132Z,35.27
2023-04-18T10:22:08.855Z,35.43
2023-04-18T10:24:53.278Z,35.46
2023-04-18T10:27:49.028Z,35.55
2023-04-18T10:30:18.921Z,35.72
2023-04-18T10:32:46.634Z,35.47
2023-04-18T10:35:13.537Z,36.07
2023-04-18T10:37:50.977Z,35.43
2023-04-18T10:40:31.523Z,36.43
2023-04-18T10:42:58.376Z,36.32
2023-04-18T10:45:27.074Z,35.80
2023-04-18T10:48:26.086Z,34.85
2023-04-18T10:51:18.824Z,36.47
2023-04-18T10:53:53.100Z,36.09
2023-04-18T10:56:20.117Z,36.42
2023-04-18T10:58:51.246Z,36.59
2023-04-18T11:01:33.367Z,36.81
2023-04-18T11:04:10.934Z,37.47
2023-04-18T11:06:51.756Z,37.55
2023-04-18T11:09:18.752Z,37.25
2023-04-18T11:11:45.544Z,37.39
2023-04-18T11:14:14.969Z,36.95
2023-04-18T11:16:41.893Z,37.24
2023-04-18T11:19:25.041Z,36.91
2023-04-18T11:21:51.815Z,37.22
2023-04-18T11:24:23.254Z,37.47
2023-04-18T11:26:49.969Z,38.07
2023-04-18T11:29:18.156Z,38.30
2023-04-18T11:31:51.703Z,37.75
2023-04-18T11:34:18.370Z,38.36
2023-04-18T11:36:49.536Z,37.98
2023-04-18T11:39:16.283Z,38.29
2023-04-18T11:41:48.327Z,38.64
2023-04-18T11:44:15.669Z,39.00
2023-04-18T11:46:42.804Z,40.29
2023-04-18T11:49:24.954Z,39.55
2023-04-18T11:51:51.723Z,40.23
2023-04-18T11:54:44.218Z,40.16
2023-04-18T11:57:21.425Z,40.85
2023-04-18T11:59:57.944Z,41.80
2023-04-18T12:02:42.805Z,41.37
2023-04-18T12:05:14.816Z,41.37
2023-04-18T12:07:44.507Z,41.98
2023-04-18T12:10:20.603Z,42.00
2023-04-18T12:12:51.530Z,42.48
2023-04-18T12:15:27.292Z,42.22
2023-04-18T12:18:04.415Z,42.71
2023-04-18T12:20:56.768Z,42.47
2023-04-18T12:23:40.518Z,42.22
2023-04-18T12:26:14.485Z,42.51
2023-04-18T12:28:45.982Z,42.32
2023-04-18T12:31:12.911Z,43.04
2023-04-18T12:33:39.725Z,43.17
2023-04-18T12:36:08.466Z,42.83
2023-04-18T12:38:37.605Z,42.84
2023-04-18T12:41:04.312Z,43.09
2023-04-18T12:43:35.851Z,43.15
2023-04-18T12:46:03.882Z,43.77
2023-04-18T12:48:30.840Z,43.53
2023-04-18T12:50:57.451Z,43.65
2023-04-18T12:53:24.078Z,44.08
2023-04-18T12:55:51.005Z,43.58
2023-04-18T12:58:20.891Z,44.56
2023-04-18T13:00:49.903Z,44.10
2023-04-18T13:03:16.869Z,44.79
2023-04-18T13:05:43.720Z,44.78
2023-04-18T13:08:17.162Z,44.98
2023-04-18T13:10:47.974Z,44.79
2023-04-18T13:13:14.829Z,44.69
2023-04-18T13:15:43.689Z,45.13
2023-04-18T13:18:10.378Z,45.63
2023-04-18T13:20:37.194Z,45.24
2023-04-18T13:23:03.984Z,45.68
2023-04-18T13:25:30.988Z,46.14
2023-04-18T13:27:58.606Z,45.98
2023-04-18T13:30:25.668Z,46.09
2023-04-18T13:32:52.469Z,46.25
2023-04-18T13:35:19.299Z,45.86
2023-04-18T13:37:46.390Z,45.57
2023-04-18T13:40:13.607Z,46.04
2023-04-18T13:42:40.487Z,45.40
2023-04-18T13:45:07.794Z,44.79
2023-04-18T13:47:34.910Z,45.22
2023-04-18T13:50:01.762Z,44.40
2023-04-18T13:52:28.538Z,44.50
2023-04-18T13:54:55.236Z,44.84
2023-04-18T13:57:24.212Z,45.01
2023-04-18T13:59:50.893Z,45.79
2023-04-18T14:02:17.670Z,45.32
2023-04-18T14:04:44.674Z,45.93
2023-04-18T14:07:11.535Z,45.72
2023-04-18T14:09:38.211Z,45.61
2023-04-18T14:12:05.261Z,45.35
2023-04-18T14:14:31.966Z,46.10
2023-04-18T14:16:58.713Z,45.94
2023-04-18T14:19:27.778Z,45.93
2023-04-18T14:21:56.739Z,46.60
2023-04-18T14:24:23.323Z,46.33
2023-04-18T14:26:52.490Z,47.44
2023-04-18T14:29:19.142Z,48.30
2023-04-18T14:31:46.221Z,48.78
2023-04-18T14:34:13.229Z,48.85
2023-04-18T14:36:39.918Z,49.22
2023-04-18T14:39:06.947Z,48.93
2023-04-18T14:41:36.327Z,49.68
2023-04-18T14:44:04.194Z,49.52
2023-04-18T14:46:33.441Z,49.48
2023-04-18T14:49:02.594Z,49.73
2023-04-18T14:51:32.305Z,50.04
2023-04-18T14:53:58.942Z,49.96
2023-04-18T14:56:27.944Z,49.86
2023-04-18T14:58:54.661Z,49.60
2023-04-18T15:01:21.462Z,49.80
2023-04-18T15:03:51.490Z,49.36
2023-04-18T15:06:18.409Z,49.77
2023-04-18T15:08:44.996Z,50.19
2023-04-18T15:11:11.654Z,50.09
2023-04-18T15:13:43.042Z,49.79
2023-04-18T15:16:09.963Z,50.36
2023-04-18T15:18:38.946Z,50.13
2023-04-18T15:21:05.702Z,50.18
2023-04-18T15:23:32.534Z,51.04
2023-04-18T15:26:01.566Z,50.81
2023-04-18T15:28:28.260Z,51.11
2023-04-18T15:30:54.964Z,51.03
2023-04-18T15:33:21.856Z,51.10
2023-04-18T15:35:48.559Z,51.46
2023-04-18T15:38:16.006Z,51.67
2023-04-18T15:40:43.636Z,51.33
2023-04-18T15:43:10.381Z,51.47
2023-04-18T15:45:40.183Z,51.85
2023-04-18T15:48:07.125Z,52.05
2023-04-18T15:50:33.953Z,51.99
2023-04-18T15:53:00.755Z,51.90
2023-04-18T15:55:32.125Z,51.93
2023-04-18T15:58:01.742Z,52.06
2023-04-18T16:00:28.490Z,52.42
2023-04-18T16:02:55.195Z,52.06
2023-04-18T16:05:21.998Z,51.64
2023-04-18T16:07:52.285Z,51.74
2023-04-18T16:10:19.068Z,51.99
2023-04-18T16:12:46.111Z,51.75
2023-04-18T16:15:13.214Z,51.60
2023-04-18T16:17:39.985Z,51.84
2023-04-18T16:20:08.632Z,51.89
2023-04-18T16:22:35.424Z,51.89
2023-04-18T16:25:02.328Z,52.09
2023-04-18T16:27:29.079Z,52.00
2023-04-18T16:29:58.222Z,52.52
2023-04-18T16:32:25.187Z,52.30
2023-04-18T16:34:54.153Z,52.45
2023-04-18T16:37:21.122Z,51.98
2023-04-18T16:39:47.951Z,52.45
2023-04-18T16:42:15.845Z,52.43
2023-04-18T16:44:45.453Z,51.85
2023-04-18T16:47:12.254Z,51.88
2023-04-18T16:49:43.516Z,52.28
2023-04-18T16:52:10.130Z,52.02
2023-04-18T16:54:36.887Z,52.20
2023-04-18T16:57:05.818Z,52.02
2023-04-18T16:59:34.806Z,52.09
2023-04-18T17:02:01.564Z,52.60
2023-04-18T17:04:31.289Z,52.07
2023-04-18T17:06:58.274Z,52.35
2023-04-18T17:09:24.908Z,51.85
2023-04-18T17:11:51.564Z,51.94
2023-04-18T17:14:20.862Z,51.53
2023-04-18T17:16:47.981Z,51.82
2023-04-18T17:19:20.018Z,52.17
2023-04-18T17:21:49.166Z,52.03
2023-04-18T17:24:18.700Z,51.25
2023-04-18T17:26:45.372Z,51.83
2023-04-18T17:29:12.162Z,51.81
2023-04-18T17:31:39.081Z,51.48
2023-04-18T17:34:08.280Z,51.69
2023-04-18T17:36:35.003Z,51.35
2023-04-18T17:39:06.494Z,51.75
2023-04-18T17:41:40.427Z,51.45
2023-04-18T17:44:10.549Z,51.89
2023-04-18T17:46:40.236Z,51.88
2023-04-18T17:49:07.061Z,51.92
2023-04-18T17:51:36.217Z,51.53
2023-04-18T17:54:03.056Z,51.69
2023-04-18T17:56:31.416Z,51.96
2023-04-18T17:58:58.058Z,52.14
2023-04-18T18:01:26.264Z,51.88
2023-04-18T18:03:55.770Z,52.34
2023-04-18T18:06:24.825Z,52.35
2023-04-18T18:08:51.459Z,52.32
2023-04-18T18:11:21.539Z,52.57
2023-04-18T18:13:54.477Z,52.64
2023-04-18T18:16:24.584Z,52.92
2023-04-18T18:18:53.494Z,52.71
2023-04-18T18:21:20.102Z,53.79
2023-04-18T18:23:46.697Z,53.72
2023-04-18T18:26:13.388Z,53.88
2023-04-18T18:28:40.084Z,54.04
2023-04-18T18:31:09.391Z,54.07
2023-04-18T18:33:36.165Z,54.38
2023-04-18T18:36:02.800Z,54.56
2023-04-18T18:38:29.437Z,54.97
2023-04-18T18:40:56.238Z,55.18
2023-04-18T18:43:26.300Z,55.60
2023-04-18T18:45:53.111Z,55.03
2023-04-18T18:48:22.197Z,55.60
2023-04-18T18:50:51.406Z,55.63
2023-04-18T18:53:20.358Z,55.94
2023-04-18T18:55:47.082Z,55.69
2023-04-18T18:58:16.146Z,56.01
2023-04-18T19:00:46.885Z,56.53
2023-04-18T19:03:18.969Z,56.18
2023-04-18T19:05:46.432Z,56.18
2023-04-18T19:08:13.926Z,56.74
2023-04-18T19:10:43.404Z,56.70
2023-04-18T19:13:12.421Z,57.04
2023-04-18T19:15:39.129Z,57.40
2023-04-18T19:18:05.885Z,56.90
2023-04-18T19:20:38.989Z,57.89
2023-04-18T19:23:05.730Z,57.83
2023-04-18T19:25:32.534Z,57.57
2023-04-18T19:27:59.197Z,57.75
2023-04-18T19:30:25.822Z,57.70
2023-04-18T19:32:52.523Z,58.33
2023-04-18T19:35:19.179Z,58.39
2023-04-18T19:37:46.473Z,58.34
2023-04-18T19:40:14.261Z,58.38
2023-04-18T19:42:41.127Z,59.14
2023-04-18T19:45:08.546Z,59.07
2023-04-18T19:47:38.076Z,58.93
2023-04-18T19:50:05.748Z,59.11
2023-04-18T19:52:32.346Z,58.79
2023-04-18T19:54:59.072Z,58.97
2023-04-18T19:57:26.463Z,59.12
2023-04-18T19:59:55.703Z,60.15
2023-04-18T20:02:22.452Z,59.53
2023-04-18T20:04:49.576Z,59.84
2023-04-18T20:07:16.405Z,59.61
2023-04-18T20:09:45.989Z,59.93
2023-04-18T20:12:14.867Z,59.94
2023-04-18T20:14:41.888Z,60.08
2023-04-18T20:17:08.668Z,59.96
2023-04-18T20:19:35.722Z,60.11
2023-04-18T20:22:04.646Z,60.05
2023-04-18T20:24:31.878Z,60.19
2023-04-18T20:26:59.769Z,59.87
2023-04-18T20:29:26.613Z,60.75
2023-04-18T20:31:53.341Z,60.81
2023-04-18T20:34:20.084Z,60.67
2023-04-18T20:36:47.050Z,60.82
2023-04-18T20:39:16.583Z,60.43
2023-04-18T20:41:48.500Z,60.84
2023-04-18T20:44:22.074Z,60.99
2023-04-18T20:46:48.816Z,61.24
2023-04-18T20:49:15.629Z,60.61
2023-04-18T20:51:42.453Z,61.54
2023-04-18T20:54:09.136Z,61.78
2023-04-18T20:56:38.804Z,61.23
2023-04-18T20:59:05.460Z,61.54
2023-04-18T21:01:32.445Z,61.39
2023-04-18T21:03:59.478Z,62.30
2023-04-18T21:06:28.433Z,61.50
2023-04-18T21:08:57.514Z,61.68
2023-04-18T21:11:24.099Z,61.69
2023-04-18T21:13:53.151Z,61.60
2023-04-18T21:16:19.896Z,61.79
2023-04-18T21:18:46.535Z,62.25
2023-04-18T21:21:13.227Z,62.50
2023-04-18T21:23:44.010Z,62.41
2023-04-18T21:26:12.601Z,61.67
2023-04-18T21:29:07.218Z,62.06
2023-04-18T21:31:37.700Z,62.32
2023-04-18T21:34:05.448Z,62.23
2023-04-18T21:36:32.438Z,62.58
2023-04-18T21:39:01.083Z,62.02
2023-04-18T21:41:28.197Z,61.95
2023-04-18T21:43:54.968Z,62.17
2023-04-18T21:46:21.784Z,62.31
2023-04-18T21:48:48.779Z,62.36
2023-04-18T21:51:20.195Z,62.72
2023-04-18T21:53:53.308Z,62.28
2023-04-18T21:56:22.357Z,62.95
2023-04-18T21:58:49.336Z,62.56
2023-04-18T22:01:16.061Z,62.50
2023-04-18T22:03:42.906Z,63.22
2023-04-18T22:06:09.887Z,63.09
2023-04-18T22:08:38.752Z,62.86
2023-04-18T22:11:05.521Z,63.16
2023-04-18T22:13:35.756Z,62.97
2023-04-18T22:16:05.444Z,62.66
2023-04-18T22:18:37.977Z,63.11
2023-04-18T22:21:05.173Z,63.23
2023-04-18T22:23:31.883Z,63.26
2023-04-18T22:26:01.035Z,62.83
2023-04-18T22:28:34.106Z,63.37
2023-04-18T22:31:03.199Z,63.65
2023-04-18T22:33:30.035Z,63.71
2023-04-18T22:35:56.656Z,64.17
2023-04-18T22:38:24.696Z,64.10
2023-04-18T22:40:51.378Z,64.66
2023-04-18T22:43:22.832Z,63.88
2023-04-18T22:45:50.013Z,63.80
2023-04-18T22:48:19.181Z,63.87
2023-04-18T22:50:46.361Z,64.49
2023-04-18T22:53:16.817Z,64.34
2023-04-18T22:55:44.821Z,64.53
2023-04-18T22:58:11.737Z,64.31
2023-04-18T23:00:40.771Z,64.47
2023-04-18T23:03:07.588Z,64.39
2023-04-18T23:05:34.774Z,65.08
2023-04-18T23:08:01.540Z,65.18
2023-04-18T23:10:28.458Z,64.85
2023-04-18T23:12:55.195Z,65.21
2023-04-18T23:15:24.659Z,65.17
2023-04-18T23:17:52.887Z,65.67
2023-04-18T23:20:24.137Z,65.29
2023-04-18T23:22:51.869Z,65.26
2023-04-18T23:25:19.785Z,65.52
2023-04-18T23:27:47.322Z,65.82
2023-04-18T23:30:14.275Z,66.26
2023-04-18T23:32:40.934Z,65.59
2023-04-18T23:35:07.942Z,66.48
2023-04-18T23:37:36.728Z,66.02
2023-04-18T23:40:06.831Z,66.07
2023-04-18T23:42:39.043Z,66.63
2023-04-18T23:45:06.534Z,66.77
2023-04-18T23:47:33.605Z,66.33
2023-04-18T23:50:00.512Z,66.85
2023-04-18T23:52:27.198Z,66.81
2023-04-18T23:54:53.891Z,66.57
2023-04-18T23:57:22.903Z,67.01
2023-04-18T23:59:49.543Z,67.07
